createdAt,value
2018-06-14T00:01:16.768Z,98527.49
2018-06-14T00:03:29.236Z,98525.09
2018-06-14T00:05:41.689Z,98525.78
2018-06-14T00:07:54.060Z,98526.14
2018-06-14T00:10:06.734Z,98529.49
2018-06-14T00:12:19.127Z,98532.34
2018-06-14T00:14:31.522Z,98532.11
2018-06-14T00:16:43.874Z,98528.48
2018-06-14T00:18:56.415Z,98526.00
2018-06-14T00:21:08.831Z,98525.78
2018-06-14T00:23:21.247Z,98520.17
2018-06-14T00:25:33.591Z,98518.25
2018-06-14T00:27:46.050Z,98528.02
2018-06-14T00:29:58.426Z,98521.34
2018-06-14T00:32:10.786Z,98528.70
2018-06-14T00:34:23.109Z,98524.83
2018-06-14T00:36:35.438Z,98521.17
2018-06-14T00:38:47.778Z,98521.27
2018-06-14T00:41:00.207Z,98514.92
2018-06-14T00:43:12.618Z,98516.66
2018-06-14T00:45:25.238Z,98506.89
2018-06-14T00:47:37.625Z,98508.20
2018-06-14T00:49:50.070Z,98510.07
2018-06-14T00:52:02.576Z,98508.77
2018-06-14T00:54:15.033Z,98508.05
2018-06-14T00:56:27.518Z,98506.39
2018-06-14T00:58:39.878Z,98508.73
2018-06-14T01:00:52.375Z,98509.57
2018-06-14T01:03:04.787Z,98515.53
2018-06-14T01:05:17.257Z,98512.19
2018-06-14T01:07:29.678Z,98515.00
2018-06-14T01:09:42.093Z,98514.62
2018-06-14T01:11:54.565Z,98508.86
2018-06-14T01:14:07.355Z,98508.36
2018-06-14T01:16:19.865Z,98510.41
2018-06-14T01:18:32.216Z,98515.30
2018-06-14T01:20:44.717Z,98518.09
2018-06-14T01:22:57.114Z,98518.36
2018-06-14T01:25:09.565Z,98516.22
2018-06-14T01:27:22.050Z,98517.62
2018-06-14T01:29:34.420Z,98514.32
2018-06-14T01:31:46.944Z,98516.10
2018-06-14T01:33:59.379Z,98516.78
2018-06-14T01:36:11.755Z,98511.91
2018-06-14T01:38:25.196Z,98512.48
2018-06-14T01:40:37.615Z,98513.31
2018-06-14T01:42:50.031Z,98511.17
2018-06-14T01:45:02.444Z,98510.44
2018-06-14T01:47:14.754Z,98503.19
2018-06-14T01:49:27.241Z,98501.64
2018-06-14T01:51:39.550Z,98499.89
2018-06-14T01:53:51.923Z,98496.42
2018-06-14T01:56:04.349Z,98496.66
2018-06-14T01:58:16.920Z,98496.61
2018-06-14T02:00:29.314Z,98496.12
2018-06-14T02:02:41.750Z,98496.45
2018-06-14T02:04:54.134Z,98489.66
2018-06-14T02:07:06.434Z,98492.87
2018-06-14T02:09:19.111Z,98492.69
2018-06-14T02:11:31.597Z,98500.08
2018-06-14T02:13:43.934Z,98496.16
2018-06-14T02:15:56.282Z,98493.84
2018-06-14T02:18:08.598Z,98493.70
2018-06-14T02:20:20.990Z,98494.73
2018-06-14T02:22:33.307Z,98496.72
2018-06-14T02:24:45.619Z,98486.13
2018-06-14T02:26:58.180Z,98491.11
2018-06-14T02:29:10.566Z,98485.47
2018-06-14T02:31:22.953Z,98482.95
2018-06-14T02:33:35.390Z,98483.78
2018-06-14T02:35:47.790Z,98484.73
2018-06-14T02:38:00.206Z,98490.69
2018-06-14T02:40:13.127Z,98492.47
2018-06-14T02:42:25.482Z,98490.22
2018-06-14T02:44:37.850Z,98491.16
2018-06-14T02:46:50.446Z,98487.97
2018-06-14T02:49:02.879Z,98494.76
2018-06-14T02:51:15.302Z,98500.19
2018-06-14T02:53:27.690Z,98492.08
2018-06-14T02:55:40.142Z,98499.91
2018-06-14T02:57:52.570Z,98493.35
2018-06-14T03:00:05.842Z,98495.48
2018-06-14T03:02:18.178Z,98497.06
2018-06-14T03:04:30.663Z,98497.89
2018-06-14T03:06:43.055Z,98502.52
2018-06-14T03:08:55.422Z,98500.70
2018-06-14T03:11:07.833Z,98504.63
2018-06-14T03:13:20.313Z,98501.18
2018-06-14T03:15:32.686Z,98499.77
2018-06-14T03:17:45.078Z,98493.23
2018-06-14T03:19:57.567Z,98493.71
2018-06-14T03:22:09.894Z,98495.13
2018-06-14T03:24:22.231Z,98497.15
2018-06-14T03:26:34.535Z,98492.81
2018-06-14T03:28:46.926Z,98496.09
2018-06-14T03:30:59.323Z,98491.08
2018-06-14T03:33:11.661Z,98491.47
2018-06-14T03:35:24.090Z,98501.52
2018-06-14T03:37:36.469Z,98494.84
2018-06-14T03:39:48.868Z,98488.27
2018-06-14T03:42:07.185Z,98489.48
2018-06-14T03:44:19.622Z,98491.08
2018-06-14T03:46:32.055Z,98495.58
2018-06-14T03:48:44.377Z,98497.83
2018-06-14T03:50:56.880Z,98499.50
2018-06-14T03:53:09.233Z,98506.30
2018-06-14T03:55:21.910Z,98508.47
2018-06-14T03:57:34.319Z,98504.70
2018-06-14T03:59:46.707Z,98505.57
2018-06-14T04:01:59.040Z,98507.50
2018-06-14T04:04:11.512Z,98506.83
2018-06-14T04:06:23.907Z,98510.35
2018-06-14T04:08:36.651Z,98503.74
2018-06-14T04:10:49.070Z,98509.47
2018-06-14T04:13:01.398Z,98506.66
2018-06-14T04:15:13.711Z,98511.41
2018-06-14T04:17:26.105Z,98505.83
2018-06-14T04:19:38.469Z,98506.78
2018-06-14T04:21:50.849Z,98510.30
2018-06-14T04:24:03.335Z,98510.69
2018-06-14T04:26:15.922Z,98515.59
2018-06-14T04:28:28.299Z,98512.19
2018-06-14T04:30:40.663Z,98520.73
2018-06-14T04:32:53.167Z,98520.80
2018-06-14T04:35:06.366Z,98512.69
2018-06-14T04:37:18.834Z,98509.50
2018-06-14T04:39:31.205Z,98510.11
2018-06-14T04:41:43.548Z,98513.55
2018-06-14T04:43:56.038Z,98507.93
2018-06-14T04:46:08.449Z,98512.11
2018-06-14T04:48:20.825Z,98511.67
2018-06-14T04:50:37.006Z,98504.30
2018-06-14T04:52:49.475Z,98508.45
2018-06-14T04:55:04.645Z,98511.19
2018-06-14T04:57:17.770Z,98509.38
2018-06-14T04:59:30.262Z,98515.91
2018-06-14T05:01:42.732Z,98514.08
2018-06-14T05:03:55.406Z,98515.70
2018-06-14T05:06:07.885Z,98517.01
2018-06-14T05:08:23.538Z,98515.34
2018-06-14T05:10:35.884Z,98515.61
2018-06-14T05:12:48.306Z,98514.04
2018-06-14T05:15:00.687Z,98516.66
2018-06-14T05:17:13.253Z,98522.85
2018-06-14T05:19:25.594Z,98516.09
2018-06-14T05:21:37.997Z,98520.75
2018-06-14T05:23:50.398Z,98518.39
2018-06-14T05:26:02.813Z,98521.71
2018-06-14T05:28:15.110Z,98526.85
2018-06-14T05:30:27.444Z,98519.61
2018-06-14T05:32:40.055Z,98518.78
2018-06-14T05:34:52.397Z,98521.53
2018-06-14T05:37:04.865Z,98519.14
2018-06-14T05:39:17.250Z,98520.57
2018-06-14T05:41:29.618Z,98522.27
2018-06-14T05:43:42.184Z,98523.92
2018-06-14T05:45:54.768Z,98520.83
2018-06-14T05:48:07.211Z,98521.44
2018-06-14T05:50:19.618Z,98524.89
2018-06-14T05:52:31.999Z,98524.13
2018-06-14T05:54:44.426Z,98529.61
2018-06-14T05:56:56.830Z,98532.58
2018-06-14T05:59:12.956Z,98527.72
2018-06-14T06:01:25.363Z,98524.98
2018-06-14T06:03:37.769Z,98518.33
2018-06-14T06:05:50.188Z,98518.84
2018-06-14T06:08:02.686Z,98519.91
2018-06-14T06:10:17.710Z,98520.28
2018-06-14T06:12:32.366Z,98519.44
2018-06-14T06:14:44.682Z,98519.56
2018-06-14T06:16:57.075Z,98516.73
2018-06-14T06:19:09.533Z,98520.41
2018-06-14T06:21:21.973Z,98523.40
2018-06-14T06:23:34.373Z,98526.73
2018-06-14T06:25:46.882Z,98522.56
2018-06-14T06:27:59.288Z,98526.74
2018-06-14T06:30:11.721Z,98528.41
2018-06-14T06:32:24.190Z,98532.93
2018-06-14T06:34:36.642Z,98531.49
2018-06-14T06:36:48.998Z,98534.23
2018-06-14T06:39:01.319Z,98528.16
2018-06-14T06:41:13.711Z,98534.99
2018-06-14T06:43:26.124Z,98530.45
2018-06-14T06:45:38.669Z,98519.11
2018-06-14T06:47:51.134Z,98520.05
2018-06-14T06:50:03.574Z,98521.36
2018-06-14T06:52:15.958Z,98520.39
2018-06-14T06:54:28.377Z,98512.97
2018-06-14T06:56:40.881Z,98516.52
2018-06-14T06:58:53.378Z,98503.74
2018-06-14T07:01:06.053Z,98502.67
2018-06-14T07:03:18.426Z,98507.39
2018-06-14T07:05:30.802Z,98513.45
2018-06-14T07:07:43.166Z,98516.17
2018-06-14T07:09:55.537Z,98511.98
2018-06-14T07:12:07.872Z,98514.80
2018-06-14T07:14:20.342Z,98508.91
2018-06-14T07:16:32.940Z,98514.90
2018-06-14T07:18:45.346Z,98501.14
2018-06-14T07:20:57.736Z,98499.58
2018-06-14T07:23:10.223Z,98497.45
2018-06-14T07:25:22.601Z,98505.20
2018-06-14T07:27:35.140Z,98500.80
2018-06-14T07:29:47.538Z,98504.50
2018-06-14T07:31:59.900Z,98502.30
2018-06-14T07:34:12.304Z,98504.93
2018-06-14T07:36:24.662Z,98498.52
2018-06-14T07:38:36.996Z,98502.07
2018-06-14T07:40:49.407Z,98497.56
2018-06-14T07:43:01.784Z,98500.19
2018-06-14T07:45:14.281Z,98499.95
2018-06-14T07:47:26.666Z,98500.03
2018-06-14T07:49:39.006Z,98505.37
2018-06-14T07:51:51.403Z,98503.07
2018-06-14T07:54:03.959Z,98511.75
2018-06-14T07:56:16.410Z,98508.23
2018-06-14T07:58:28.866Z,98511.67
2018-06-14T08:00:41.366Z,98510.61
2018-06-14T08:02:53.806Z,98511.07
2018-06-14T08:05:06.217Z,98512.12
2018-06-14T08:07:18.734Z,98510.36
2018-06-14T08:09:31.196Z,98511.67
2018-06-14T08:11:43.570Z,98508.22
2018-06-14T08:13:56.010Z,98517.19
2018-06-14T08:16:08.439Z,98510.53
2018-06-14T08:18:20.821Z,98515.20
2018-06-14T08:20:33.159Z,98510.02
2018-06-14T08:22:45.558Z,98517.91
2018-06-14T08:24:58.027Z,98521.00
2018-06-14T08:27:10.683Z,98517.05
2018-06-14T08:29:23.169Z,98510.55
2018-06-14T08:31:35.623Z,98505.81
2018-06-14T08:33:48.008Z,98504.69
2018-06-14T08:36:00.536Z,98507.54
2018-06-14T08:38:12.887Z,98505.48
2018-06-14T08:40:25.351Z,98504.50
2018-06-14T08:42:37.727Z,98509.50
2018-06-14T08:44:50.133Z,98516.90
2018-06-14T08:47:02.546Z,98507.73
2018-06-14T08:49:14.971Z,98512.34
2018-06-14T08:51:27.298Z,98512.78
2018-06-14T08:53:39.641Z,98515.70
2018-06-14T08:55:52.090Z,98514.24
2018-06-14T08:58:04.715Z,98509.41
2018-06-14T09:00:17.287Z,98508.81
2018-06-14T09:02:29.662Z,98503.70
2018-06-14T09:04:42.108Z,98507.92
2018-06-14T09:06:54.632Z,98509.66
2018-06-14T09:09:08.228Z,98517.55
2018-06-14T09:11:20.598Z,98516.34
2018-06-14T09:13:32.936Z,98517.80
2018-06-14T09:15:45.414Z,98514.42
2018-06-14T09:17:57.766Z,98513.11
2018-06-14T09:20:10.170Z,98516.97
2018-06-14T09:22:22.770Z,98522.39
2018-06-14T09:24:35.158Z,98521.44
2018-06-14T09:26:47.522Z,98523.32
2018-06-14T09:28:59.999Z,98522.16
2018-06-14T09:31:12.400Z,98520.08
2018-06-14T09:33:24.857Z,98519.72
2018-06-14T09:35:37.294Z,98518.62
2018-06-14T09:37:49.738Z,98517.53
2018-06-14T09:40:02.105Z,98518.58
2018-06-14T09:42:14.594Z,98518.20
2018-06-14T09:44:26.933Z,98519.74
2018-06-14T09:46:39.378Z,98515.19
2018-06-14T09:48:56.366Z,98516.45
2018-06-14T09:51:08.771Z,98513.63
2018-06-14T09:53:21.230Z,98514.89
2018-06-14T09:55:33.582Z,98518.03
2018-06-14T09:57:46.043Z,98515.84
2018-06-14T09:59:58.502Z,98515.55
2018-06-14T10:02:10.870Z,98513.97
2018-06-14T10:04:23.246Z,98519.58
2018-06-14T10:06:35.665Z,98516.95
2018-06-14T10:08:48.089Z,98511.12
2018-06-14T10:11:00.734Z,98511.12
2018-06-14T10:13:13.181Z,98509.09
2018-06-14T10:15:25.686Z,98508.75
2018-06-14T10:17:38.074Z,98511.59
2018-06-14T10:19:50.474Z,98504.56
2018-06-14T10:22:02.854Z,98503.94
2018-06-14T10:24:15.390Z,98506.70
2018-06-14T10:26:27.911Z,98502.75
2018-06-14T10:28:40.277Z,98496.89
2018-06-14T10:30:52.660Z,98499.08
2018-06-14T10:33:05.351Z,98503.70
2018-06-14T10:35:17.710Z,98489.84
2018-06-14T10:37:30.155Z,98486.71
2018-06-14T10:39:42.574Z,98483.43
2018-06-14T10:41:54.941Z,98475.20
2018-06-14T10:44:07.395Z,98475.73
2018-06-14T10:46:19.792Z,98474.14
2018-06-14T10:48:32.159Z,98484.19
2018-06-14T10:50:44.594Z,98476.84
2018-06-14T10:52:57.097Z,98478.50
2018-06-14T10:55:09.519Z,98481.01
2018-06-14T10:57:21.926Z,98483.83
2018-06-14T10:59:34.310Z,98481.30
2018-06-14T11:01:46.703Z,98482.23
2018-06-14T11:03:59.209Z,98475.09
2018-06-14T11:06:11.690Z,98472.56
2018-06-14T11:08:24.034Z,98476.52
2018-06-14T11:10:36.494Z,98479.37
2018-06-14T11:12:49.109Z,98472.44
2018-06-14T11:15:01.507Z,98479.91
2018-06-14T11:17:13.882Z,98480.16
2018-06-14T11:19:26.331Z,98472.20
2018-06-14T11:21:38.705Z,98474.29
2018-06-14T11:23:51.182Z,98467.38
2018-06-14T11:26:03.652Z,98468.34
2018-06-14T11:28:15.986Z,98468.30
2018-06-14T11:30:28.358Z,98477.89
2018-06-14T11:32:40.729Z,98464.34
2018-06-14T11:34:53.503Z,98470.64
2018-06-14T11:37:05.883Z,98471.43
2018-06-14T11:39:18.239Z,98461.73
2018-06-14T11:41:30.634Z,98465.77
2018-06-14T11:43:43.113Z,98468.13
2018-06-14T11:45:55.565Z,98470.23
2018-06-14T11:48:08.080Z,98470.36
2018-06-14T11:50:20.742Z,98468.28
2018-06-14T11:52:33.158Z,98463.52
2018-06-14T11:54:45.644Z,98460.23
2018-06-14T11:56:58.219Z,98467.29
2018-06-14T11:59:10.628Z,98453.99
2018-06-14T12:01:23.097Z,98460.13
2018-06-14T12:03:35.423Z,98458.88
2018-06-14T12:05:47.754Z,98463.48
2018-06-14T12:08:00.131Z,98457.27
2018-06-14T12:10:13.137Z,98454.79
2018-06-14T12:12:25.477Z,98448.42
2018-06-14T12:14:37.937Z,98450.45
2018-06-14T12:16:50.345Z,98448.27
2018-06-14T12:19:02.807Z,98443.67
2018-06-14T12:21:15.136Z,98437.97
2018-06-14T12:23:27.569Z,98441.06
2018-06-14T12:25:40.374Z,98431.04
2018-06-14T12:27:52.751Z,98438.00
2018-06-14T12:30:05.110Z,98427.38
2018-06-14T12:32:17.636Z,98428.16
2018-06-14T12:34:30.094Z,98432.00
2018-06-14T12:36:42.511Z,98426.86
2018-06-14T12:38:54.918Z,98421.98
2018-06-14T12:41:07.378Z,98415.52
2018-06-14T12:43:19.810Z,98416.80
2018-06-14T12:45:32.138Z,98419.08
2018-06-14T12:47:44.474Z,98420.03
2018-06-14T12:49:57.097Z,98420.20
2018-06-14T12:52:09.451Z,98409.86
2018-06-14T12:54:21.831Z,98412.00
2018-06-14T12:56:34.238Z,98408.53
2018-06-14T12:58:46.579Z,98407.55
2018-06-14T13:00:58.986Z,98405.66
2018-06-14T13:03:11.321Z,98405.12
2018-06-14T13:05:23.708Z,98405.11
2018-06-14T13:07:36.021Z,98402.22
2018-06-14T13:09:48.422Z,98395.64
2018-06-14T13:12:00.957Z,98389.27
2018-06-14T13:14:13.282Z,98388.42
2018-06-14T13:16:25.654Z,98387.98
2018-06-14T13:18:38.257Z,98395.16
2018-06-14T13:20:50.873Z,98389.00
2018-06-14T13:23:03.251Z,98381.69
2018-06-14T13:25:15.716Z,98391.89
2018-06-14T13:27:28.070Z,98388.61
2018-06-14T13:29:40.886Z,98385.67
2018-06-14T13:31:53.264Z,98384.02
2018-06-14T13:34:05.942Z,98386.36
2018-06-14T13:36:18.287Z,98385.97
2018-06-14T13:38:30.642Z,98380.31
2018-06-14T13:40:43.060Z,98386.11
2018-06-14T13:42:55.458Z,98380.25
2018-06-14T13:45:07.894Z,98374.06
2018-06-14T13:47:20.202Z,98377.53
2018-06-14T13:49:32.616Z,98371.33
2018-06-14T13:51:45.256Z,98370.32
2018-06-14T13:53:57.682Z,98370.91
2018-06-14T13:56:10.134Z,98365.98
2018-06-14T13:58:22.570Z,98368.45
2018-06-14T14:00:35.047Z,98368.16
2018-06-14T14:02:47.442Z,98363.28
2018-06-14T14:04:59.759Z,98364.41
2018-06-14T14:07:12.234Z,98357.12
2018-06-14T14:09:24.639Z,98356.88
2018-06-14T14:11:37.012Z,98358.72
2018-06-14T14:13:49.423Z,98358.86
2018-06-14T14:16:01.882Z,98352.03
2018-06-14T14:18:14.242Z,98350.59
2018-06-14T14:20:26.766Z,98341.06
2018-06-14T14:22:39.207Z,98350.67
2018-06-14T14:24:52.391Z,98343.88
2018-06-14T14:27:04.787Z,98342.06
2018-06-14T14:29:17.338Z,98337.79
2018-06-14T14:31:29.820Z,98333.95
2018-06-14T14:33:42.398Z,98337.37
2018-06-14T14:35:54.815Z,98337.22
2018-06-14T14:38:07.255Z,98337.22
2018-06-14T14:40:19.682Z,98336.25
2018-06-14T14:42:32.062Z,98333.84
2018-06-14T14:44:44.482Z,98334.09
2018-06-14T14:46:56.853Z,98334.67
2018-06-14T14:49:09.291Z,98326.02
2018-06-14T14:51:21.674Z,98322.58
2018-06-14T14:53:33.982Z,98324.25
2018-06-14T14:55:46.420Z,98334.34
2018-06-14T14:57:58.809Z,98328.88
2018-06-14T15:00:11.301Z,98331.95
2018-06-14T15:02:23.925Z,98331.82
2018-06-14T15:04:36.357Z,98330.98
2018-06-14T15:06:48.838Z,98321.42
2018-06-14T15:09:01.257Z,98312.88
2018-06-14T15:11:13.698Z,98320.00
2018-06-14T15:13:26.127Z,98319.72
2018-06-14T15:15:38.516Z,98319.25
2018-06-14T15:17:50.918Z,98313.04
2018-06-14T15:20:03.341Z,98317.70
2018-06-14T15:22:15.720Z,98314.73
2018-06-14T15:24:28.180Z,98314.26
2018-06-14T15:26:40.581Z,98318.08
2018-06-14T15:28:53.147Z,98312.70
2018-06-14T15:31:05.522Z,98315.74
2018-06-14T15:33:17.834Z,98311.73
2018-06-14T15:35:30.258Z,98315.67
2018-06-14T15:37:42.622Z,98311.70
2018-06-14T15:39:55.045Z,98313.52
2018-06-14T15:42:07.403Z,98316.09
2018-06-14T15:44:19.965Z,98313.17
2018-06-14T15:46:32.718Z,98313.20
2018-06-14T15:48:45.230Z,98309.75
2018-06-14T15:50:57.990Z,98304.82
2018-06-14T15:53:10.425Z,98301.72
2018-06-14T15:55:33.012Z,98304.49
2018-06-14T15:57:45.516Z,98300.03
2018-06-14T15:59:57.870Z,98299.69
2018-06-14T16:02:10.275Z,98301.97
2018-06-14T16:04:22.642Z,98304.00
2018-06-14T16:06:35.078Z,98303.39
2018-06-14T16:08:47.582Z,98301.01
2018-06-14T16:10:59.938Z,98297.98
2018-06-14T16:13:12.414Z,98297.80
2018-06-14T16:15:24.839Z,98299.59
2018-06-14T16:17:37.339Z,98297.97
2018-06-14T16:19:49.767Z,98299.23
2018-06-14T16:22:02.122Z,98297.92
2018-06-14T16:24:14.572Z,98299.09
2018-06-14T16:26:26.957Z,98300.25
2018-06-14T16:28:39.333Z,98303.22
2018-06-14T16:30:51.887Z,98301.19
2018-06-14T16:33:04.592Z,98306.98
2018-06-14T16:35:17.049Z,98303.85
2018-06-14T16:37:29.502Z,98303.88
2018-06-14T16:39:41.968Z,98306.88
2018-06-14T16:41:54.372Z,98310.64
2018-06-14T16:44:06.826Z,98313.17
2018-06-14T16:46:19.208Z,98309.83
2018-06-14T16:48:31.714Z,98308.53
2018-06-14T16:50:44.111Z,98308.20
2018-06-14T16:52:56.557Z,98313.17
2018-06-14T16:55:09.076Z,98314.16
2018-06-14T16:57:21.489Z,98312.68
2018-06-14T16:59:33.875Z,98301.63
2018-06-14T17:01:46.385Z,98310.02
2018-06-14T17:03:59.239Z,98315.92
2018-06-14T17:06:11.624Z,98311.66
2018-06-14T17:08:24.245Z,98310.15
2018-06-14T17:10:36.709Z,98310.34
2018-06-14T17:12:49.189Z,98313.55
2018-06-14T17:15:01.585Z,98312.14
2018-06-14T17:17:13.970Z,98310.25
2018-06-14T17:19:26.483Z,98313.17
2018-06-14T17:21:38.855Z,98308.81
2018-06-14T17:23:51.237Z,98314.66
2018-06-14T17:26:03.647Z,98314.64
2018-06-14T17:28:16.114Z,98314.61
2018-06-14T17:30:28.478Z,98315.84
2018-06-14T17:32:41.023Z,98312.55
2018-06-14T17:34:53.613Z,98312.84
2018-06-14T17:37:05.994Z,98324.16
2018-06-14T17:39:18.413Z,98321.13
2018-06-14T17:41:30.822Z,98313.64
2018-06-14T17:43:43.186Z,98318.56
2018-06-14T17:45:55.520Z,98320.41
2018-06-14T17:48:07.899Z,98318.35
2018-06-14T17:50:20.547Z,98317.83
2018-06-14T17:52:32.988Z,98317.83
2018-06-14T17:54:45.508Z,98323.72
2018-06-14T17:56:57.895Z,98326.77
2018-06-14T17:59:10.243Z,98329.73
2018-06-14T18:01:22.779Z,98332.93
2018-06-14T18:03:35.236Z,98342.11
2018-06-14T18:05:47.639Z,98337.45
2018-06-14T18:08:00.002Z,98345.40
2018-06-14T18:10:12.408Z,98349.76
2018-06-14T18:12:24.822Z,98349.63
2018-06-14T18:14:37.233Z,98341.05
2018-06-14T18:16:49.671Z,98348.53
2018-06-14T18:19:02.066Z,98349.70
2018-06-14T18:21:14.616Z,98352.19
2018-06-14T18:23:26.999Z,98357.38
2018-06-14T18:25:39.434Z,98358.08
2018-06-14T18:27:51.771Z,98358.48
2018-06-14T18:30:04.203Z,98363.52
2018-06-14T18:32:16.791Z,98362.97
2018-06-14T18:34:29.227Z,98366.03
2018-06-14T18:36:41.643Z,98367.70
2018-06-14T18:38:54.095Z,98371.88
2018-06-14T18:41:06.582Z,98379.25
2018-06-14T18:43:19.120Z,98373.97
2018-06-14T18:45:31.484Z,98374.34
2018-06-14T18:47:43.946Z,98376.17
2018-06-14T18:49:56.367Z,98381.66
2018-06-14T18:52:08.866Z,98386.02
2018-06-14T18:54:21.299Z,98386.70
2018-06-14T18:56:33.820Z,98392.84
2018-06-14T18:58:46.199Z,98392.97
2018-06-14T19:00:58.667Z,98394.09
2018-06-14T19:03:11.419Z,98399.97
2018-06-14T19:05:23.938Z,98401.90
2018-06-14T19:07:36.406Z,98399.42
2018-06-14T19:09:48.991Z,98402.45
2018-06-14T19:12:01.561Z,98410.58
2018-06-14T19:14:13.976Z,98413.30
2018-06-14T19:16:26.582Z,98415.80
2018-06-14T19:18:39.028Z,98412.21
2018-06-14T19:20:51.618Z,98419.61
2018-06-14T19:23:04.160Z,98413.90
2018-06-14T19:25:16.661Z,98428.14
2018-06-14T19:27:29.100Z,98424.98
2018-06-14T19:29:41.535Z,98431.30
2018-06-14T19:31:53.952Z,98429.31
2018-06-14T19:34:06.421Z,98434.89
2018-06-14T19:36:18.981Z,98437.42
2018-06-14T19:38:31.452Z,98440.45
2018-06-14T19:40:43.896Z,98444.84
2018-06-14T19:42:56.420Z,98454.09
2018-06-14T19:45:09.046Z,98462.73
2018-06-14T19:47:21.509Z,98464.07
2018-06-14T19:49:34.711Z,98464.66
2018-06-14T19:51:47.135Z,98465.27
2018-06-14T19:53:59.567Z,98469.78
2018-06-14T19:56:12.250Z,98479.45
2018-06-14T19:58:24.876Z,98480.29
2018-06-14T20:00:37.326Z,98491.14
2018-06-14T20:02:49.785Z,98493.03
2018-06-14T20:05:02.165Z,98495.41
2018-06-14T20:07:14.672Z,98493.04
2018-06-14T20:09:27.038Z,98496.81
2018-06-14T20:11:39.762Z,98496.81
2018-06-14T20:13:52.149Z,98498.96
2018-06-14T20:16:04.678Z,98495.02
2018-06-14T20:18:17.123Z,98500.48
2018-06-14T20:20:29.500Z,98505.23
2018-06-14T20:22:41.898Z,98502.14
2018-06-14T20:24:54.543Z,98505.47
2018-06-14T20:27:07.184Z,98506.42
2018-06-14T20:29:19.710Z,98506.68
2018-06-14T20:31:32.104Z,98502.27
2018-06-14T20:33:44.530Z,98510.93
2018-06-14T20:35:56.958Z,98508.70
2018-06-14T20:38:09.398Z,98517.61
2018-06-14T20:40:21.843Z,98517.64
2018-06-14T20:42:34.211Z,98520.03
2018-06-14T20:44:46.727Z,98519.17
2018-06-14T20:46:59.091Z,98529.52
2018-06-14T20:49:11.496Z,98518.44
2018-06-14T20:51:23.953Z,98517.22
2018-06-14T20:53:36.459Z,98518.84
2018-06-14T20:55:48.830Z,98518.02
2018-06-14T20:58:01.274Z,98530.13
2018-06-14T21:00:13.727Z,98525.95
2018-06-14T21:02:26.126Z,98529.87
2018-06-14T21:04:38.498Z,98535.80
2018-06-14T21:06:50.985Z,98537.57
2018-06-14T21:09:05.153Z,98534.77
2018-06-14T21:11:17.963Z,98540.27
2018-06-14T21:13:30.411Z,98541.17
2018-06-14T21:15:42.934Z,98535.69
2018-06-14T21:17:55.326Z,98539.73
2018-06-14T21:20:07.764Z,98539.61
2018-06-14T21:22:20.159Z,98540.70
2018-06-14T21:24:32.674Z,98543.19
2018-06-14T21:26:45.148Z,98538.56
2018-06-14T21:28:57.722Z,98541.39
2018-06-14T21:31:10.122Z,98531.28
2018-06-14T21:33:22.530Z,98534.85
2018-06-14T21:35:35.030Z,98538.17
2018-06-14T21:37:47.422Z,98543.79
2018-06-14T21:40:00.003Z,98548.28
2018-06-14T21:42:12.331Z,98547.57
2018-06-14T21:44:24.708Z,98546.97
2018-06-14T21:46:37.371Z,98553.77
2018-06-14T21:48:49.723Z,98549.30
2018-06-14T21:51:02.427Z,98550.27
2018-06-14T21:53:14.840Z,98549.21
2018-06-14T21:55:27.178Z,98545.08
2018-06-14T21:57:39.619Z,98548.88
2018-06-14T21:59:52.050Z,98553.80
2018-06-14T22:02:04.399Z,98549.17
2018-06-14T22:04:16.796Z,98545.25
2018-06-14T22:06:29.512Z,98547.39
2018-06-14T22:08:41.932Z,98547.52
2018-06-14T22:10:54.240Z,98555.24
2018-06-14T22:13:06.659Z,98551.58
2018-06-14T22:15:19.216Z,98548.39
2018-06-14T22:17:31.587Z,98550.63
2018-06-14T22:19:44.003Z,98558.13
2018-06-14T22:21:56.414Z,98553.02
2018-06-14T22:24:08.878Z,98556.59
2018-06-14T22:26:21.332Z,98547.34
2018-06-14T22:28:33.777Z,98557.46
2018-06-14T22:30:46.163Z,98555.77
2018-06-14T22:33:09.938Z,98546.95
2018-06-14T22:35:27.342Z,98547.22
2018-06-14T22:37:39.757Z,98540.20
2018-06-14T22:39:52.190Z,98537.33
2018-06-14T22:42:04.542Z,98545.17
2018-06-14T22:44:17.001Z,98539.94
2018-06-14T22:46:29.369Z,98537.67
2018-06-14T22:48:41.714Z,98532.09
2018-06-14T22:51:05.377Z,98538.28
2018-06-14T22:53:17.781Z,98543.81
2018-06-14T22:55:30.223Z,98544.47
2018-06-14T22:57:42.592Z,98540.80
2018-06-14T22:59:54.994Z,98541.37
2018-06-14T23:02:07.362Z,98535.74
2018-06-14T23:04:27.730Z,98526.23
2018-06-14T23:06:40.051Z,98526.80
2018-06-14T23:08:52.876Z,98525.64
2018-06-14T23:11:16.430Z,98525.33
2018-06-14T23:13:28.790Z,98527.11
2018-06-14T23:15:41.187Z,98532.56
2018-06-14T23:17:53.666Z,98527.81
2018-06-14T23:20:06.142Z,98525.06
2018-06-14T23:22:18.476Z,98530.51
2018-06-14T23:24:30.861Z,98533.12
2018-06-14T23:26:43.306Z,98529.64
2018-06-14T23:28:55.847Z,98528.67
2018-06-14T23:31:08.341Z,98527.36
2018-06-14T23:33:20.699Z,98530.19
2018-06-14T23:35:33.065Z,98524.00
2018-06-14T23:37:45.515Z,98526.73
2018-06-14T23:39:58.106Z,98525.85
2018-06-14T23:42:10.446Z,98527.02
2018-06-14T23:44:22.802Z,98527.84
2018-06-14T23:46:35.155Z,98528.80
2018-06-14T23:48:47.649Z,98529.11
2018-06-14T23:51:00.011Z,98525.64
2018-06-14T23:53:12.552Z,98524.16
2018-06-14T23:55:24.917Z,98515.55
2018-06-14T23:57:37.366Z,98522.09
2018-06-14T23:59:50.246Z,98514.64
